Time;durP1;ratioP1;P1;durP2;ratioP2;P2;SDS_P1;SDS_P2;PMS_P1;PMS_P2;Temp;Humidity;BMP_temperature;BMP_pressure;BME280_temperature;BME280_humidity;BME280_pressure;Samples;Min_cycle;Max_cycle;Signal;HPM_P1;HPM_P2
2022/06/21 00:01:01;;;;;;;0.90;0.87;;;;;;;12.63;59.54;98846.44;5090804;28;41722;-74
2022/06/21 00:03:29;;;;;;;1.00;1.00;;;;;;;12.65;59.74;98844.50;5092011;28;42495;-75
2022/06/21 00:05:57;;;;;;;1.17;1.07;;;;;;;12.62;59.60;98850.88;5091112;28;42090;-74
2022/06/21 00:08:28;;;;;;;0.80;0.80;;;;;;;12.58;60.14;98850.28;5092183;28;39921;-75
2022/06/21 00:10:57;;;;;;;1.30;1.20;;;;;;;12.54;60.42;98848.78;5087847;28;42711;-74
2022/06/21 00:13:30;;;;;;;0.87;0.87;;;;;;;12.50;60.26;98847.28;5091861;28;43206;-76
2022/06/21 00:16:01;;;;;;;0.80;0.80;;;;;;;12.47;60.23;98847.53;5074095;28;41278;-76
2022/06/21 00:18:31;;;;;;;1.20;1.10;;;;;;;12.43;60.28;98845.19;5088684;28;41647;-77
2022/06/21 00:20:59;;;;;;;0.80;0.80;;;;;;;12.38;60.32;98848.16;5092955;28;41723;-76
2022/06/21 00:23:30;;;;;;;0.97;0.90;;;;;;;12.32;60.06;98842.44;5077034;28;43205;-74
2022/06/21 00:25:59;;;;;;;1.40;0.97;;;;;;;12.30;60.49;98839.03;5092415;28;42234;-79
2022/06/21 00:28:28;;;;;;;1.80;1.00;;;;;;;12.26;60.85;98848.16;5094250;28;38986;-76
2022/06/21 00:30:56;;;;;;;1.33;1.03;;;;;;;12.21;60.70;98845.84;5095362;28;42788;-77
2022/06/21 00:33:24;;;;;;;1.17;0.80;;;;;;;12.16;60.72;98853.25;5095038;28;43553;-77
2022/06/21 00:35:57;;;;;;;1.50;1.20;;;;;;;12.11;60.92;98850.09;5077285;28;42584;-74
2022/06/21 00:38:29;;;;;;;1.73;1.00;;;;;;;12.11;61.09;98863.38;5093399;28;40728;-75
2022/06/21 00:40:59;;;;;;;1.37;1.03;;;;;;;12.05;61.02;98861.13;5076815;28;40621;-74
2022/06/21 00:43:34;;;;;;;1.10;1.03;;;;;;;12.08;61.09;98859.13;5094922;28;42691;-74
2022/06/21 00:46:01;;;;;;;1.47;1.37;;;;;;;12.06;61.36;98866.31;5094099;28;42400;-78
2022/06/21 00:48:34;;;;;;;1.30;1.20;;;;;;;12.05;61.49;98855.81;5093541;28;40920;-76
2022/06/21 00:51:09;;;;;;;1.20;1.10;;;;;;;12.04;61.19;98859.41;5091961;28;42278;-72
2022/06/21 00:53:39;;;;;;;1.47;1.20;;;;;;;12.02;61.04;98872.78;5093560;28;41639;-76
2022/06/21 00:56:13;;;;;;;1.50;1.07;;;;;;;12.01;61.59;98867.59;5093951;28;41469;-74
2022/06/21 00:58:43;;;;;;;1.30;1.20;;;;;;;11.99;61.63;98864.22;5093268;28;40152;-76
2022/06/21 01:01:18;;;;;;;1.10;1.00;;;;;;;11.95;61.43;98865.34;5094988;28;41761;-75
2022/06/21 01:03:48;;;;;;;0.80;0.80;;;;;;;11.96;61.61;98867.06;5093784;28;41789;-76
2022/06/21 01:06:19;;;;;;;1.07;0.93;;;;;;;11.95;61.57;98870.66;5093305;28;42308;-78
2022/06/21 01:13:05;;;;;;;0.93;0.83;;;;;;;11.86;61.87;98873.00;5095271;28;42136;-73
2022/06/21 01:15:38;;;;;;;1.10;1.00;;;;;;;11.84;62.12;98874.91;5091675;28;43856;-73
2022/06/21 01:18:08;;;;;;;1.13;1.00;;;;;;;11.81;62.23;98883.06;5090915;28;43187;-77
2022/06/21 01:20:40;;;;;;;1.33;1.00;;;;;;;11.79;62.29;98870.84;5094850;28;39620;-72
2022/06/21 01:23:17;;;;;;;1.30;1.20;;;;;;;11.77;62.57;98876.25;5092217;28;41621;-79
2022/06/21 01:25:53;;;;;;;1.20;1.10;;;;;;;11.75;62.40;98879.91;5076765;28;41667;-77
2022/06/21 01:28:23;;;;;;;1.03;1.03;;;;;;;11.74;62.27;98879.09;5092174;28;42321;-74
2022/06/21 01:30:55;;;;;;;1.67;0.90;;;;;;;11.72;62.24;98886.31;5094453;28;40022;-77
2022/06/21 01:33:29;;;;;;;1.43;1.27;;;;;;;11.69;62.20;98881.19;5091418;28;41724;-77
2022/06/21 01:35:59;;;;;;;2.10;1.10;;;;;;;11.67;62.38;98883.09;5091511;28;42800;-74
2022/06/21 01:38:33;;;;;;;1.03;1.00;;;;;;;11.64;62.43;98880.63;5091275;28;42183;-76
2022/06/21 01:41:06;;;;;;;0.90;0.90;;;;;;;11.63;62.40;98880.72;5076205;28;38532;-73
2022/06/21 01:43:37;;;;;;;1.30;0.97;;;;;;;11.59;62.33;98879.25;5092977;28;42141;-74
2022/06/21 01:46:10;;;;;;;1.47;1.13;;;;;;;11.53;62.38;98873.41;5076558;28;42606;-77
2022/06/21 01:48:42;;;;;;;1.47;1.10;;;;;;;11.54;62.81;98882.19;5091125;28;42826;-75
2022/06/21 01:51:14;;;;;;;1.47;1.10;;;;;;;11.51;62.66;98877.94;5091307;28;41020;-76
2022/06/21 01:53:43;;;;;;;1.40;0.90;;;;;;;11.50;62.17;98867.44;5091443;28;42581;-74
2022/06/21 01:56:14;;;;;;;1.30;1.20;;;;;;;11.48;62.56;98874.66;5092947;28;43772;-75
2022/06/21 01:58:49;;;;;;;1.10;1.00;;;;;;;11.45;62.67;98872.22;5092045;28;42267;-72
2022/06/21 02:02:06;;;;;;;1.73;1.00;;;;;;;11.44;62.82;98862.56;5092848;28;39860;-73
2022/06/21 02:04:37;;;;;;;0.90;0.90;;;;;;;11.39;63.21;98859.34;5075644;28;40753;-73
2022/06/21 02:07:09;;;;;;;1.50;1.20;;;;;;;11.34;63.32;98864.97;5075925;28;41763;-77
2022/06/21 02:09:43;;;;;;;1.00;1.00;;;;;;;11.33;63.61;98860.59;5092354;28;43066;-71
2022/06/21 02:12:14;;;;;;;1.50;1.40;;;;;;;11.29;63.45;98861.75;5091043;28;40876;-72
2022/06/21 02:14:47;;;;;;;1.83;1.30;;;;;;;11.24;63.73;98855.91;5092392;28;41809;-74
2022/06/21 02:17:20;;;;;;;1.00;1.00;;;;;;;11.24;63.62;98857.72;5089686;28;43801;-74
2022/06/21 02:19:53;;;;;;;1.20;1.10;;;;;;;11.19;63.83;98850.03;5092590;28;41237;-78
2022/06/21 02:22:23;;;;;;;1.90;1.17;;;;;;;11.18;63.72;98852.78;5090873;28;40969;-78
2022/06/21 02:24:52;;;;;;;1.50;1.10;;;;;;;11.15;63.58;98845.88;5093538;28;41804;-73
2022/06/21 02:27:23;;;;;;;1.03;1.03;;;;;;;11.12;63.65;98840.81;5075613;28;42129;-77
2022/06/21 02:29:55;;;;;;;1.13;1.10;;;;;;;11.08;63.74;98842.81;5075773;28;41030;-76
2022/06/21 02:32:26;;;;;;;0.97;0.80;;;;;;;10.97;63.84;98825.91;5089806;28;40089;-76
2022/06/21 02:35:00;;;;;;;1.73;1.30;;;;;;;11.04;63.75;98853.69;5075356;28;42106;-76
2022/06/21 02:37:29;;;;;;;1.10;1.00;;;;;;;11.01;63.80;98837.97;5089617;28;42817;-76
2022/06/21 02:39:58;;;;;;;0.97;0.87;;;;;;;10.95;63.68;98841.88;5075258;28;41468;-77
2022/06/21 02:42:31;;;;;;;1.57;1.20;;;;;;;10.97;63.87;98842.63;5075503;28;39887;-76
2022/06/21 02:45:07;;;;;;;1.97;1.20;;;;;;;10.93;63.81;98842.94;5091090;28;41765;-72
2022/06/21 02:47:40;;;;;;;1.03;1.00;;;;;;;10.91;63.93;98845.66;5091481;28;43610;-75
2022/06/21 02:50:32;;;;;;;1.40;1.30;;;;;;;10.91;64.12;98844.81;5093338;28;43172;-75
2022/06/21 02:53:03;;;;;;;1.20;1.07;;;;;;;10.86;63.90;98829.25;5078358;28;41153;-76
2022/06/21 02:55:40;;;;;;;1.03;0.93;;;;;;;10.88;64.22;98837.09;5093811;28;41669;-74
2022/06/21 02:58:15;;;;;;;1.03;1.00;;;;;;;10.86;63.77;98837.19;5095648;28;42862;-73
2022/06/21 03:00:46;;;;;;;1.27;1.10;;;;;;;10.84;63.87;98827.63;5095562;28;43655;-75
2022/06/21 03:03:19;;;;;;;1.93;1.20;;;;;;;10.84;64.00;98825.84;5095605;28;39791;-73
2022/06/21 03:05:50;;;;;;;1.60;1.40;;;;;;;10.84;64.40;98825.84;5091806;28;42578;-76
2022/06/21 03:08:19;;;;;;;1.33;1.23;;;;;;;10.84;64.33;98820.53;5089618;28;43740;-73
2022/06/21 03:10:50;;;;;;;1.20;1.20;;;;;;;10.75;64.76;98802.59;5075060;28;42298;-74
2022/06/21 03:13:21;;;;;;;1.20;1.10;;;;;;;10.84;64.69;98822.34;5090787;28;39881;-73
2022/06/21 03:15:56;;;;;;;2.90;1.80;;;;;;;10.83;64.57;98829.44;5091942;28;40514;-74
2022/06/21 03:18:26;;;;;;;1.80;1.63;;;;;;;10.82;64.74;98830.38;5091435;28;44459;-78
2022/06/21 03:20:55;;;;;;;2.77;1.80;;;;;;;10.82;64.99;98835.66;5091548;28;41136;-71
2022/06/21 03:23:24;;;;;;;1.63;1.53;;;;;;;10.81;64.74;98833.97;5091668;28;39989;-76
2022/06/21 03:25:54;;;;;;;1.57;1.47;;;;;;;10.78;64.50;98820.91;5092715;28;41502;-78
2022/06/21 03:28:26;;;;;;;1.90;1.57;;;;;;;10.78;64.65;98818.25;5092673;28;42733;-77
2022/06/21 03:31:02;;;;;;;1.97;1.60;;;;;;;10.81;64.90;98826.03;5089767;28;42237;-73
2022/06/21 03:33:31;;;;;;;1.73;1.50;;;;;;;10.80;64.82;98826.97;5090736;28;40927;-77
2022/06/21 03:36:01;;;;;;;1.27;0.97;;;;;;;10.80;64.34;98830.47;5092488;28;42651;-77
2022/06/21 03:38:29;;;;;;;1.10;1.10;;;;;;;10.82;64.44;98825.06;5092620;28;42762;-74
2022/06/21 03:43:47;;;;;;;1.53;1.30;;;;;;;10.89;64.52;98841.41;5074442;28;39982;-77
2022/06/21 03:46:21;;;;;;;1.50;1.40;;;;;;;10.90;64.84;98843.97;5074806;28;41830;-74
2022/06/21 03:48:55;;;;;;;1.23;1.13;;;;;;;10.96;64.81;98846.25;5089561;28;42888;-78
2022/06/21 03:51:28;;;;;;;1.47;1.33;;;;;;;11.01;64.59;98852.06;5090682;28;41182;-77
2022/06/21 03:54:01;;;;;;;2.67;1.13;;;;;;;11.10;64.71;98856.81;5091005;28;40755;-76
2022/06/21 03:56:35;;;;;;;0.97;0.97;;;;;;;11.20;64.49;98856.19;5088939;28;42687;-75
2022/06/21 03:59:10;;;;;;;1.37;1.20;;;;;;;11.25;64.61;98848.81;5074123;28;42909;-77
2022/06/21 04:01:45;;;;;;;1.03;1.00;;;;;;;11.34;64.30;98842.91;5074109;28;42698;-76
2022/06/21 04:04:20;;;;;;;2.80;1.53;;;;;;;11.41;64.29;98844.19;5091208;28;39311;-77
2022/06/21 04:06:55;;;;;;;1.90;1.73;;;;;;;11.48;64.18;98850.81;5090829;28;40603;-74
2022/06/21 04:09:29;;;;;;;2.07;1.53;;;;;;;11.55;64.24;98841.47;5090851;28;42015;-76
2022/06/21 04:12:05;;;;;;;1.67;1.57;;;;;;;11.64;64.45;98838.19;5074044;28;42211;-79
2022/06/21 04:14:40;;;;;;;1.57;1.23;;;;;;;11.74;64.29;98841.09;5090816;28;38982;-80
2022/06/21 04:17:14;;;;;;;1.40;1.30;;;;;;;11.83;64.37;98845.81;5090870;28;40945;-76
2022/06/21 04:19:48;;;;;;;1.40;1.30;;;;;;;11.95;64.08;98857.41;5090502;28;43135;-75
2022/06/21 04:22:23;;;;;;;1.30;1.20;;;;;;;12.05;64.46;98845.19;5074353;28;41150;-71
2022/06/21 04:24:56;;;;;;;2.20;1.60;;;;;;;12.15;64.50;98838.28;5090905;28;40338;-74
2022/06/21 04:27:32;;;;;;;2.20;1.60;;;;;;;12.26;64.38;98822.47;5088896;28;42460;-74
2022/06/21 04:30:04;;;;;;;1.13;1.10;;;;;;;12.32;64.07;98822.03;5091034;28;44133;-78
2022/06/21 04:32:39;;;;;;;1.77;1.53;;;;;;;12.46;64.00;98834.34;5073511;28;40979;-74
2022/06/21 04:35:13;;;;;;;1.83;1.70;;;;;;;12.52;63.71;98821.47;5088715;28;41128;-78
2022/06/21 04:37:47;;;;;;;1.93;1.60;;;;;;;12.64;63.69;98824.22;5087567;28;41734;-75
2022/06/21 04:40:21;;;;;;;1.80;1.50;;;;;;;12.78;63.73;98824.09;5088085;28;42393;-77
2022/06/21 04:42:56;;;;;;;3.70;1.60;;;;;;;12.88;63.77;98817.97;5073603;28;41180;-78
2022/06/21 04:45:32;;;;;;;1.87;1.77;;;;;;;13.01;63.90;98809.97;5087527;28;40118;-75
2022/06/21 04:48:15;;;;;;;2.40;2.20;;;;;;;13.11;64.23;98805.66;5073628;28;41719;-76
2022/06/21 04:50:46;;;;;;;2.63;2.00;;;;;;;13.23;64.29;98804.78;5090150;28;43312;-75
2022/06/21 04:53:20;;;;;;;2.47;1.63;;;;;;;13.37;63.88;98817.06;5089901;28;42293;-77
2022/06/21 04:55:59;;;;;;;1.97;1.77;;;;;;;13.52;63.39;98820.41;5090620;28;40323;-77
2022/06/21 04:58:27;;;;;;;2.87;2.60;;;;;;;13.63;63.54;98817.78;5089273;28;41789;-73
2022/06/21 05:00:55;;;;;;;2.23;1.80;;;;;;;13.73;63.07;98821.44;5091465;28;43071;-75
2022/06/21 05:03:39;;;;;;;2.03;1.93;;;;;;;13.85;63.02;98817.00;5073115;28;41206;-79
2022/06/21 05:06:10;;;;;;;2.67;2.47;;;;;;;13.95;63.30;98802.88;5088478;28;40880;-79
2022/06/21 05:08:37;;;;;;;2.40;2.20;;;;;;;14.09;62.94;98807.16;5092607;28;41845;-74
2022/06/21 05:11:05;;;;;;;3.10;2.30;;;;;;;14.21;62.94;98808.00;5093612;28;42566;-76
2022/06/21 05:13:36;;;;;;;2.37;2.13;;;;;;;14.34;62.57;98814.06;5093235;28;41264;-76
2022/06/21 05:16:11;;;;;;;2.57;2.37;;;;;;;14.48;62.19;98815.66;5093657;28;40374;-74
2022/06/21 05:18:44;;;;;;;2.50;2.10;;;;;;;14.58;62.02;98812.16;5092717;28;41543;-72
2022/06/21 05:21:18;;;;;;;1.80;1.70;;;;;;;14.68;62.24;98821.13;5076468;28;43386;-77
2022/06/21 05:23:47;;;;;;;2.53;2.20;;;;;;;14.81;62.06;98822.81;5093546;28;42215;-79
2022/06/21 05:26:23;;;;;;;2.20;1.70;;;;;;;14.95;62.04;98818.06;5094663;28;41702;-75
2022/06/21 05:28:55;;;;;;;2.33;2.13;;;;;;;15.07;61.98;98814.38;5076539;28;40480;-73
2022/06/21 05:31:27;;;;;;;2.27;2.00;;;;;;;15.21;61.95;98815.06;5093476;28;41586;-78
2022/06/21 05:34:00;;;;;;;2.40;2.20;;;;;;;15.34;62.03;98816.59;5076304;28;42254;-76
2022/06/21 05:36:32;;;;;;;2.77;2.33;;;;;;;15.46;61.33;98830.72;5076305;28;40067;-74
2022/06/21 05:39:03;;;;;;;2.37;2.17;;;;;;;15.54;61.79;98814.94;5091955;28;42493;-75
2022/06/21 05:41:38;;;;;;;2.50;2.30;;;;;;;15.67;61.09;98834.34;5091434;28;43664;-75
2022/06/21 05:44:12;;;;;;;3.63;2.10;;;;;;;15.84;61.23;98834.72;5092247;28;42025;-71
2022/06/21 05:46:43;;;;;;;3.37;2.40;;;;;;;15.95;61.07;98843.53;5090317;28;40086;-76
2022/06/21 05:49:21;;;;;;;2.30;2.10;;;;;;;16.10;60.75;98852.91;5093134;28;41894;-74
2022/06/21 05:51:51;;;;;;;2.93;2.73;;;;;;;16.29;60.20;98840.66;5075976;28;42992;-74
2022/06/21 05:54:22;;;;;;;3.23;1.93;;;;;;;16.77;59.08;98849.78;5092605;28;42348;-77
2022/06/21 05:56:51;;;;;;;2.47;2.20;;;;;;;17.11;58.01;98850.31;5091069;28;40051;-73
2022/06/21 05:59:23;;;;;;;2.10;1.90;;;;;;;17.24;57.85;98852.75;5092540;28;41295;-75
2022/06/21 06:01:55;;;;;;;2.13;1.93;;;;;;;17.30;57.57;98854.88;5091044;28;42975;-78
2022/06/21 06:04:30;;;;;;;2.40;2.20;;;;;;;17.33;57.82;98859.94;5092453;28;42517;-77
2022/06/21 06:07:00;;;;;;;2.60;2.40;;;;;;;17.35;57.46;98857.97;5047959;28;39335;-76
2022/06/21 06:09:34;;;;;;;2.27;2.07;;;;;;;17.36;57.68;98859.66;5069738;28;42431;-80
2022/06/21 06:12:06;;;;;;;2.50;2.30;;;;;;;17.41;57.62;98856.59;5088678;28;41732;-77
2022/06/21 06:14:40;;;;;;;3.63;2.30;;;;;;;17.47;57.64;98856.84;5086151;28;42997;-81
2022/06/21 06:17:25;;;;;;;2.47;2.27;;;;;;;17.53;57.53;98847.44;5052365;28;41191;-82
2022/06/21 06:20:00;;;;;;;2.57;2.20;;;;;;;17.66;57.49;98857.91;5071240;28;41666;-78
2022/06/21 06:22:37;;;;;;;2.40;2.20;;;;;;;17.69;57.69;98836.16;5087674;28;42739;-83
2022/06/21 06:25:14;;;;;;;2.43;2.23;;;;;;;17.89;57.13;98856.63;5083375;28;43020;-83
2022/06/21 06:27:49;;;;;;;2.00;1.90;;;;;;;18.16;57.48;98863.94;5069529;28;39002;-81
2022/06/21 06:30:23;;;;;;;1.93;1.83;;;;;;;18.29;56.97;98854.59;5075180;28;40910;-80
2022/06/21 06:33:02;;;;;;;2.50;2.30;;;;;;;18.40;56.91;98856.28;5075550;28;41701;-77
2022/06/21 06:35:32;;;;;;;2.47;2.27;;;;;;;18.62;56.16;98881.94;5075414;28;41209;-75
2022/06/21 06:37:59;;;;;;;2.90;2.70;;;;;;;18.75;55.31;98892.34;5091096;28;40126;-76
2022/06/21 06:40:32;;;;;;;2.40;2.10;;;;;;;18.97;54.95;98892.81;5074472;28;43180;-76
2022/06/21 06:43:05;;;;;;;2.27;2.07;;;;;;;19.21;54.64;98880.69;5071134;28;43029;-77
2022/06/21 06:45:37;;;;;;;2.90;2.30;;;;;;;19.48;54.49;98886.03;5069578;28;43245;-78
2022/06/21 06:48:17;;;;;;;4.93;2.70;;;;;;;19.88;53.91;98884.78;5075391;28;39830;-78
2022/06/21 06:50:59;;;;;;;2.70;2.50;;;;;;;20.20;53.30;98887.75;5091884;28;40849;-81
2022/06/21 06:53:33;;;;;;;2.50;2.13;;;;;;;20.24;52.96;98886.44;5092367;28;43613;-78
2022/06/21 06:56:04;;;;;;;3.33;2.60;;;;;;;19.98;52.35;98845.22;5075110;28;41416;-79
2022/06/21 06:58:36;;;;;;;3.57;2.30;;;;;;;20.29;52.24;98886.81;5074293;28;38984;-75
2022/06/21 07:01:10;;;;;;;2.30;2.10;;;;;;;20.35;52.06;98880.84;5074738;28;40782;-74
2022/06/21 07:03:43;;;;;;;3.70;2.57;;;;;;;20.43;52.18;98859.38;5089824;28;42727;-73
2022/06/21 07:06:19;;;;;;;3.43;2.67;;;;;;;20.90;51.35;98880.50;5091051;28;41190;-73
2022/06/21 07:08:54;;;;;;;2.47;2.27;;;;;;;21.46;50.12;98887.16;5090285;28;41321;-75
2022/06/21 07:11:30;;;;;;;3.30;2.50;;;;;;;21.90;48.99;98890.44;5122016;27;42574;-72
2022/06/21 07:13:59;;;;;;;2.70;2.50;;;;;;;22.08;48.70;98890.31;5089030;28;42583;-72
2022/06/21 07:16:28;;;;;;;2.80;2.60;;;;;;;21.95;48.17;98888.09;5073877;28;41669;-74
2022/06/21 07:18:58;;;;;;;2.73;2.13;;;;;;;21.90;48.38;98890.44;5095704;28;40462;-73
2022/06/21 07:21:28;;;;;;;3.43;3.03;;;;;;;21.90;48.83;98889.59;5053340;28;41446;-74
2022/06/21 07:23:59;;;;;;;2.47;2.27;;;;;;;21.88;48.80;98880.84;5073090;28;42741;-73
2022/06/21 07:26:31;;;;;;;3.10;2.00;;;;;;;21.97;48.54;98885.22;5073867;28;41180;-74
2022/06/21 07:29:03;;;;;;;4.07;2.27;;;;;;;22.18;47.72;98905.31;5089775;28;38970;-74
2022/06/21 07:31:37;;;;;;;2.90;2.47;;;;;;;22.78;46.01;98904.13;5087624;28;42665;-74
2022/06/21 07:34:11;;;;;;;2.40;2.20;;;;;;;24.00;44.02;98918.78;5090111;28;43510;-75
2022/06/21 07:36:46;;;;;;;2.10;1.90;;;;;;;25.24;41.53;98941.91;5090223;28;43697;-76
2022/06/21 07:39:18;;;;;;;2.40;1.87;;;;;;;26.10;40.06;98949.25;5089116;28;39946;-72
2022/06/21 07:41:52;;;;;;;2.43;1.97;;;;;;;26.88;38.61;98963.81;5090128;28;41048;-75
2022/06/21 07:44:25;;;;;;;4.00;1.90;;;;;;;27.82;36.67;98978.63;5089843;28;41701;-77
2022/06/21 07:46:58;;;;;;;1.50;1.40;;;;;;;28.78;35.42;98982.91;5088832;28;42304;-77
2022/06/21 07:49:31;;;;;;;3.50;2.00;;;;;;;29.20;34.17;98994.41;5090325;28;40334;-76
2022/06/21 07:52:06;;;;;;;1.90;1.57;;;;;;;29.23;34.45;98981.19;5090635;28;40867;-78
2022/06/21 07:54:40;;;;;;;1.50;1.40;;;;;;;29.09;32.59;98993.16;5069597;28;42799;-74
2022/06/21 07:57:13;;;;;;;2.60;1.23;;;;;;;29.22;32.25;98993.13;5070351;28;41262;-75
2022/06/21 07:59:44;;;;;;;2.50;1.80;;;;;;;29.31;31.74;98997.31;5087118;28;40654;-75
2022/06/21 08:08:16;;;;;;;3.00;1.70;;;;;;;31.68;28.37;98989.56;5092386;27;41861;-74
2022/06/21 08:10:48;;;;;;;2.63;1.80;;;;;;;32.95;26.94;98976.63;5090338;28;39159;-75
2022/06/21 08:13:16;;;;;;;2.07;1.53;;;;;;;34.71;25.53;99004.59;5088702;28;41694;-74
2022/06/21 08:15:51;;;;;;;2.13;1.93;;;;;;;35.82;22.98;99028.44;5089992;28;42292;-75
2022/06/21 08:18:26;;;;;;;1.60;1.50;;;;;;;36.83;22.44;99023.31;5087214;28;42382;-76
2022/06/21 08:20:59;;;;;;;1.70;1.58;;;;;;;37.98;21.36;99040.16;5073172;28;38529;-75
2022/06/21 08:23:34;;;;;;;1.27;1.17;;;;;;;38.85;20.50;99019.13;5069064;28;41524;-79
2022/06/21 08:26:08;;;;;;;1.55;1.13;;;;;;;39.55;20.18;99014.72;5067814;28;42678;-77
2022/06/21 08:28:42;;;;;;;2.42;1.52;;;;;;;39.61;17.84;99030.22;5077636;28;43227;-79
2022/06/21 08:31:13;;;;;;;1.60;1.40;;;;;;;39.19;18.95;99017.53;5088337;28;40050;-76
2022/06/21 08:33:46;;;;;;;2.10;1.40;;;;;;;38.62;19.06;99024.09;5088818;28;41842;-77
2022/06/21 08:36:19;;;;;;;1.88;1.25;;;;;;;37.85;20.38;98997.25;5088108;28;42827;-74
2022/06/21 08:38:53;;;;;;;1.77;1.52;;;;;;;37.92;20.88;98986.78;5089103;28;42131;-77
2022/06/21 08:42:08;;;;;;;2.22;1.30;;;;;;;38.07;20.94;98989.59;5107009;28;38891;-75
2022/06/21 08:48:40;;;;;;;1.85;1.30;;;;;;;39.84;19.06;98974.13;5087299;28;43532;-76
2022/06/21 08:51:52;;;;;;;2.55;1.50;;;;;;;40.13;18.65;98975.13;5093385;28;42551;-77
2022/06/21 08:54:31;;;;;;;1.50;1.40;;;;;;;40.15;17.60;98966.53;5025530;28;39882;-79
2022/06/21 08:57:09;;;;;;;2.63;1.60;;;;;;;39.48;17.67;98954.84;5056067;28;41739;-74
2022/06/21 08:59:48;;;;;;;2.03;1.20;;;;;;;38.77;17.95;98957.69;5090386;28;42999;-76
2022/06/21 09:02:32;;;;;;;2.75;1.40;;;;;;;38.37;18.59;98946.53;5089736;28;42243;-76
2022/06/21 09:05:11;;;;;;;1.63;1.30;;;;;;;38.82;19.16;98922.78;5055616;28;39664;-76
2022/06/21 09:07:59;;;;;;;1.30;1.13;;;;;;;39.17;18.06;98899.78;5071048;28;41484;-78
2022/06/21 09:10:48;;;;;;;2.90;1.27;;;;;;;39.35;17.83;98897.22;5093698;28;42532;-76
2022/06/21 09:13:40;;;;;;;2.53;1.17;;;;;;;39.14;17.28;98876.22;5092267;28;41067;-79
2022/06/21 09:16:18;;;;;;;1.23;1.10;;;;;;;39.25;17.21;98860.41;5091231;28;39774;-74
2022/06/21 09:19:01;;;;;;;1.70;1.10;;;;;;;39.11;17.91;98872.06;5075319;28;40920;-77
2022/06/21 09:21:46;;;;;;;1.83;1.15;;;;;;;39.44;17.89;98881.69;5092569;28;41387;-76
2022/06/21 09:24:24;;;;;;;2.42;1.20;;;;;;;40.47;16.97;98886.38;5091876;28;42159;-75
2022/06/21 09:26:59;;;;;;;2.35;1.15;;;;;;;41.19;16.37;98906.88;5110406;28;40271;-82
2022/06/21 09:29:34;;;;;;;1.52;1.20;;;;;;;41.60;15.97;98912.81;5075897;28;40743;-81
2022/06/21 09:32:17;;;;;;;1.48;1.15;;;;;;;40.87;16.80;98903.84;5093092;28;42026;-79
2022/06/21 09:35:02;;;;;;;1.95;1.10;;;;;;;40.21;16.65;98907.94;5077152;28;41631;-81
2022/06/21 09:37:42;;;;;;;1.63;1.20;;;;;;;39.44;18.08;98891.97;5076810;28;39736;-85
2022/06/21 09:40:27;;;;;;;1.70;1.20;;;;;;;39.33;17.80;98888.34;5076590;28;41192;-84
2022/06/21 09:43:06;;;;;;;1.33;1.00;;;;;;;39.42;17.27;98889.47;5075725;28;41729;-88
2022/06/21 09:45:38;;;;;;;1.98;1.20;;;;;;;39.64;16.62;98885.50;5076224;28;41388;-86
2022/06/21 09:48:16;;;;;;;1.60;1.23;;;;;;;40.27;16.00;98880.16;5076003;28;39876;-77
2022/06/21 09:50:58;;;;;;;2.00;1.30;;;;;;;41.01;15.95;98887.31;5090863;28;42721;-81
2022/06/21 09:53:39;;;;;;;1.30;1.20;;;;;;;41.46;15.72;98884.03;5074666;28;42206;-80
2022/06/21 09:56:22;;;;;;;4.97;1.20;;;;;;;41.97;15.48;98883.41;5109875;28;42717;-84
2022/06/21 09:58:59;;;;;;;0.95;0.90;;;;;;;42.44;14.44;98904.72;5075630;28;39568;-84
2022/06/21 10:01:38;;;;;;;1.63;0.90;;;;;;;42.55;14.70;98899.78;5089681;28;42661;-81
2022/06/21 10:04:18;;;;;;;1.75;1.15;;;;;;;42.03;14.35;98887.78;5092110;28;42134;-82
2022/06/21 10:06:57;;;;;;;1.23;1.13;;;;;;;41.37;15.85;98885.00;5089811;28;43086;-80
2022/06/21 10:09:43;;;;;;;1.20;1.10;;;;;;;40.63;16.68;98884.31;5072314;28;39105;-85
2022/06/21 10:12:25;;;;;;;2.03;1.00;;;;;;;39.93;17.21;98872.63;5086809;28;42534;-81
2022/06/21 10:15:06;;;;;;;1.30;1.20;;;;;;;39.41;16.62;98875.88;5088559;28;43536;-82
2022/06/21 10:18:12;;;;;;;1.67;1.10;;;;;;;38.38;17.69;98856.88;5075671;28;42614;-85
2022/06/21 10:21:15;;;;;;;1.57;1.20;;;;;;;37.46;19.26;98838.41;5066020;28;39300;-80
2022/06/21 10:24:10;;;;;;;1.97;1.23;;;;;;;37.01;20.06;98846.16;5075016;28;41963;-76
2022/06/21 10:27:02;;;;;;;1.30;1.20;;;;;;;36.55;19.92;98833.16;5089480;28;42574;-75
2022/06/21 10:29:49;;;;;;;1.53;1.23;;;;;;;36.20;19.85;98834.50;5074692;28;42845;-76
2022/06/21 10:32:36;;;;;;;1.03;0.90;;;;;;;35.77;19.84;98849.22;5089366;28;40947;-75
2022/06/21 10:35:37;;;;;;;1.37;1.13;;;;;;;35.23;19.89;98832.56;5091305;28;43150;-76
2022/06/21 10:38:42;;;;;;;1.10;1.00;;;;;;;35.37;19.68;98838.53;5091676;28;43400;-85
2022/06/21 10:41:26;;;;;;;3.13;1.20;;;;;;;35.19;19.55;98847.09;5075242;28;41278;-82
2022/06/21 10:44:19;;;;;;;1.30;1.17;;;;;;;34.69;21.33;98819.66;5091802;28;40990;-79
2022/06/21 10:46:49;;;;;;;2.00;1.03;;;;;;;34.36;21.38;98813.13;5074977;28;43445;-78
2022/06/21 10:49:42;;;;;;;2.30;1.10;;;;;;;34.04;20.81;98806.47;5092005;28;41865;-81
2022/06/21 10:52:43;;;;;;;1.37;1.10;;;;;;;33.78;20.51;98803.28;5090083;28;42263;-85
2022/06/21 10:55:49;;;;;;;1.43;1.27;;;;;;;33.75;21.77;98795.56;5092561;28;40973;-85
2022/06/21 10:58:40;;;;;;;2.67;1.20;;;;;;;33.53;20.93;98794.53;5074885;28;42463;-82
2022/06/21 11:01:24;;;;;;;2.57;1.30;;;;;;;33.62;21.20;98786.75;5094337;28;20565;-85
2022/06/21 11:04:07;;;;;;;1.00;1.00;;;;;;;33.76;21.59;98788.13;5073960;28;41713;-77
2022/06/21 11:06:46;;;;;;;2.63;1.17;;;;;;;33.74;21.69;98785.63;5087911;28;41096;-78
2022/06/21 11:09:21;;;;;;;1.20;1.10;;;;;;;33.64;21.57;98768.09;5088680;28;42740;-79
2022/06/21 11:11:56;;;;;;;4.00;1.27;;;;;;;33.70;21.53;98786.34;5089924;28;42766;-83
2022/06/21 11:14:42;;;;;;;1.20;1.00;;;;;;;33.72;22.06;98789.69;5090386;28;43395;-83
2022/06/21 11:17:18;;;;;;;1.70;1.33;;;;;;;33.63;22.08;98764.50;5075442;28;38780;-84
2022/06/21 11:19:58;;;;;;;1.67;1.07;;;;;;;33.81;21.59;98783.56;5074304;28;42182;-79
2022/06/21 11:22:42;;;;;;;2.47;1.40;;;;;;;33.91;22.13;98773.81;5091456;28;43369;-84
2022/06/21 11:25:21;;;;;;;1.37;1.27;;;;;;;33.82;21.63;98763.25;5091338;28;43614;-80
2022/06/21 11:27:57;;;;;;;2.50;1.33;;;;;;;33.82;21.53;98757.75;5089268;28;40998;-79
2022/06/21 11:30:35;;;;;;;2.10;1.13;;;;;;;33.94;22.80;98756.84;5074229;28;40933;-82
2022/06/21 11:33:08;;;;;;;2.07;1.33;;;;;;;34.08;21.79;98780.19;5070400;28;41698;-73
2022/06/21 11:35:45;;;;;;;2.20;1.40;;;;;;;34.18;20.47;98785.84;5069723;28;42310;-74
2022/06/21 11:38:32;;;;;;;1.83;1.20;;;;;;;34.10;20.81;98772.53;5072274;28;40611;-73
2022/06/21 11:41:05;;;;;;;1.60;1.50;;;;;;;34.28;21.23;98765.94;5091904;28;42386;-73
2022/06/21 11:43:52;;;;;;;1.20;1.10;;;;;;;34.54;20.07;98762.50;5086951;28;42972;-73
2022/06/21 11:46:29;;;;;;;1.03;0.90;;;;;;;34.88;20.28;98758.59;5088627;28;42242;-72
2022/06/21 11:49:23;;;;;;;1.60;1.20;;;;;;;35.44;19.24;98755.72;5088400;28;41032;-72
2022/06/21 11:52:14;;;;;;;1.10;0.90;;;;;;;36.04;17.81;98760.19;5089893;28;40718;-73
2022/06/21 11:54:48;;;;;;;1.57;1.20;;;;;;;36.15;18.58;98739.84;5088129;28;42810;-73
2022/06/21 11:57:23;;;;;;;1.53;1.40;;;;;;;36.41;19.03;98727.09;5090044;28;40796;-73
2022/06/21 11:59:59;;;;;;;1.90;1.30;;;;;;;36.72;18.40;98733.69;5089909;28;39219;-74
2022/06/21 12:02:33;;;;;;;1.37;1.20;;;;;;;36.93;17.88;98739.00;5088069;28;41788;-73
2022/06/21 12:05:05;;;;;;;1.40;1.30;;;;;;;37.43;17.88;98733.94;5089650;28;42831;-72
2022/06/21 12:07:41;;;;;;;1.10;0.90;;;;;;;38.10;17.55;98731.84;5090128;28;43933;-73
2022/06/21 12:10:19;;;;;;;1.63;1.20;;;;;;;38.55;16.91;98724.63;5069945;28;39799;-72
2022/06/21 12:12:57;;;;;;;3.00;1.10;;;;;;;39.61;16.55;98723.31;5102120;28;42683;-75
2022/06/21 12:15:46;;;;;;;2.97;1.10;;;;;;;40.09;15.38;98732.66;5090821;28;43708;-78
2022/06/21 12:18:17;;;;;;;1.30;1.20;;;;;;;39.82;16.52;98715.66;5075010;28;42265;-82
2022/06/21 12:20:49;;;;;;;1.80;1.20;;;;;;;40.14;15.90;98731.78;5092539;28;40771;-77
2022/06/21 12:23:24;;;;;;;1.23;1.13;;;;;;;40.66;14.77;98736.56;5093280;28;40805;-77
2022/06/21 12:25:54;;;;;;;1.48;0.90;;;;;;;41.11;14.96;98729.63;5094887;28;43749;-78
2022/06/21 12:28:24;;;;;;;1.40;1.10;;;;;;;41.39;14.91;98729.84;5094416;28;42340;-81
2022/06/21 12:30:53;;;;;;;1.23;0.85;;;;;;;41.22;14.25;98728.41;5077281;28;40022;-79